createdAt,value
2018-01-19T00:01:36.762Z,2.50
2018-01-19T00:04:05.027Z,2.50
2018-01-19T00:06:33.430Z,2.60
2018-01-19T00:09:01.694Z,2.70
2018-01-19T00:11:29.955Z,2.80
2018-01-19T00:13:58.250Z,2.80
2018-01-19T00:16:26.539Z,2.90
2018-01-19T00:18:54.789Z,3.00
2018-01-19T00:21:23.052Z,3.20
2018-01-19T00:23:51.333Z,3.20
2018-01-19T00:26:19.584Z,3.20
2018-01-19T00:28:47.858Z,3.20
2018-01-19T00:31:16.125Z,3.30
2018-01-19T00:33:44.397Z,3.40
2018-01-19T00:36:12.669Z,3.40
2018-01-19T00:38:40.956Z,3.40
2018-01-19T00:41:09.214Z,3.50
2018-01-19T00:43:37.473Z,3.50
2018-01-19T00:46:05.744Z,3.60
2018-01-19T00:48:34.031Z,3.60
2018-01-19T00:51:02.299Z,3.60
2018-01-19T00:53:30.432Z,3.60
2018-01-19T00:55:58.718Z,3.70
2018-01-19T00:58:26.969Z,3.70
2018-01-19T01:00:55.244Z,3.80
2018-01-19T01:03:23.490Z,3.80
2018-01-19T01:05:51.769Z,3.70
2018-01-19T01:08:20.252Z,3.80
2018-01-19T01:10:48.521Z,3.90
2018-01-19T01:13:16.989Z,3.80
2018-01-19T01:15:45.272Z,3.70
2018-01-19T01:18:13.555Z,3.60
2018-01-19T01:20:41.808Z,3.60
2018-01-19T01:23:10.104Z,3.50
2018-01-19T01:25:38.354Z,3.40
2018-01-19T01:28:06.613Z,3.30
2018-01-19T01:30:34.644Z,3.30
2018-01-19T01:33:03.498Z,3.30
2018-01-19T01:35:32.175Z,3.30
2018-01-19T01:38:00.802Z,3.50
2018-01-19T01:40:29.231Z,3.50
2018-01-19T01:42:57.516Z,3.60
2018-01-19T01:45:25.787Z,3.60
2018-01-19T01:47:54.085Z,3.60
2018-01-19T01:50:22.349Z,3.60
2018-01-19T01:52:50.630Z,3.60
2018-01-19T01:55:18.915Z,3.60
2018-01-19T01:57:47.172Z,3.60
2018-01-19T02:00:15.434Z,3.50
2018-01-19T02:02:43.703Z,3.50
2018-01-19T02:05:11.985Z,3.50
2018-01-19T02:07:40.258Z,3.60
2018-01-19T02:10:09.041Z,3.60
2018-01-19T02:12:37.472Z,3.60
2018-01-19T02:15:05.738Z,3.60
2018-01-19T02:17:34.039Z,3.60
2018-01-19T02:20:02.319Z,3.60
2018-01-19T02:22:30.597Z,3.50
2018-01-19T02:24:58.863Z,3.50
2018-01-19T02:27:27.134Z,3.60
2018-01-19T02:29:55.406Z,3.60
2018-01-19T02:32:23.659Z,3.70
2018-01-19T02:34:51.929Z,3.60
2018-01-19T02:37:20.188Z,3.60
2018-01-19T02:39:48.522Z,3.60
2018-01-19T02:42:16.591Z,3.50
2018-01-19T02:44:44.878Z,3.60
2018-01-19T02:47:13.144Z,3.50
2018-01-19T02:49:42.952Z,3.60
2018-01-19T02:52:11.225Z,3.50
2018-01-19T02:54:39.479Z,3.60
2018-01-19T02:57:08.147Z,3.60
2018-01-19T02:59:36.457Z,3.60
2018-01-19T03:02:04.151Z,3.50
2018-01-19T03:04:32.428Z,3.50
2018-01-19T03:07:00.690Z,3.50
2018-01-19T03:09:29.070Z,3.40
2018-01-19T03:11:57.387Z,3.40
2018-01-19T03:14:25.651Z,3.40
2018-01-19T03:16:53.924Z,3.40
2018-01-19T03:19:22.191Z,3.40
2018-01-19T03:21:50.456Z,3.40
2018-01-19T03:24:18.721Z,3.50
2018-01-19T03:26:47.734Z,3.50
2018-01-19T03:29:16.000Z,3.60
2018-01-19T03:31:44.583Z,3.50
2018-01-19T03:34:13.069Z,3.60
2018-01-19T03:36:42.098Z,3.70
2018-01-19T03:39:10.359Z,3.70
2018-01-19T03:41:38.626Z,3.70
2018-01-19T03:44:06.872Z,3.80
2018-01-19T03:46:35.162Z,3.90
2018-01-19T03:49:03.408Z,4.00
2018-01-19T03:51:32.243Z,4.00
2018-01-19T03:54:00.530Z,4.00
2018-01-19T03:56:28.819Z,4.00
2018-01-19T03:58:57.080Z,4.00
2018-01-19T04:01:25.346Z,4.10
2018-01-19T04:03:53.612Z,4.10
2018-01-19T04:06:21.908Z,3.80
2018-01-19T04:08:50.164Z,3.60
2018-01-19T04:11:18.421Z,3.50
2018-01-19T04:13:46.693Z,3.40
2018-01-19T04:16:14.959Z,3.20
2018-01-19T04:18:43.243Z,3.10
2018-01-19T04:21:11.492Z,3.10
2018-01-19T04:23:39.773Z,3.20
2018-01-19T04:26:08.032Z,3.30
2018-01-19T04:28:36.281Z,3.30
2018-01-19T04:31:04.566Z,3.30
2018-01-19T04:33:32.820Z,3.30
2018-01-19T04:36:01.087Z,3.40
2018-01-19T04:38:29.356Z,3.40
2018-01-19T04:40:57.440Z,3.50
2018-01-19T04:43:25.711Z,3.50
2018-01-19T04:45:54.020Z,3.70
2018-01-19T04:48:22.288Z,3.70
2018-01-19T04:50:50.554Z,3.80
2018-01-19T04:53:18.826Z,3.80
2018-01-19T04:55:47.110Z,3.90
2018-01-19T04:58:15.374Z,4.00
2018-01-19T05:00:43.646Z,4.00
2018-01-19T05:03:11.937Z,4.00
2018-01-19T05:05:40.198Z,4.10
2018-01-19T05:08:08.454Z,4.10
2018-01-19T05:10:36.738Z,4.10
2018-01-19T05:13:04.999Z,4.00
2018-01-19T05:15:34.377Z,4.00
2018-01-19T05:18:02.641Z,3.90
2018-01-19T05:20:30.927Z,3.80
2018-01-19T05:22:59.193Z,3.80
2018-01-19T05:25:27.454Z,3.80
2018-01-19T05:27:55.717Z,3.80
2018-01-19T05:30:23.984Z,3.70
2018-01-19T05:32:52.273Z,3.70
2018-01-19T05:35:20.540Z,3.70
2018-01-19T05:37:48.809Z,3.70
2018-01-19T05:40:17.406Z,3.80
2018-01-19T05:42:45.355Z,3.80
2018-01-19T05:45:13.626Z,3.90
2018-01-19T05:47:41.916Z,3.90
2018-01-19T05:50:10.162Z,4.00
2018-01-19T05:52:38.434Z,4.10
2018-01-19T05:55:06.715Z,4.20
2018-01-19T05:57:35.003Z,4.20
2018-01-19T06:00:03.409Z,4.30
2018-01-19T06:02:31.670Z,4.20
2018-01-19T06:04:59.914Z,4.30
2018-01-19T06:07:28.197Z,4.30
2018-01-19T06:09:56.459Z,4.30
2018-01-19T06:12:24.730Z,4.30
2018-01-19T06:14:53.009Z,4.40
2018-01-19T06:17:21.298Z,4.40
2018-01-19T06:19:49.593Z,4.40
2018-01-19T06:22:17.874Z,4.40
2018-01-19T06:24:46.349Z,4.40
2018-01-19T06:27:14.626Z,4.40
2018-01-19T06:29:43.171Z,4.30
2018-01-19T06:32:11.435Z,4.40
2018-01-19T06:34:39.706Z,4.40
2018-01-19T06:37:08.003Z,4.30
2018-01-19T06:39:36.295Z,4.30
2018-01-19T06:42:05.310Z,4.30
2018-01-19T06:44:33.602Z,4.30
2018-01-19T06:47:01.882Z,4.30
2018-01-19T06:49:29.955Z,4.30
2018-01-19T06:51:58.324Z,4.30
2018-01-19T06:54:27.376Z,4.20
2018-01-19T06:56:55.457Z,4.20
2018-01-19T06:59:23.530Z,4.20
2018-01-19T07:01:52.080Z,4.20
2018-01-19T07:04:20.336Z,4.30
2018-01-19T07:06:49.371Z,4.20
2018-01-19T07:09:17.647Z,4.20
2018-01-19T07:11:45.919Z,4.20
2018-01-19T07:14:14.189Z,4.10
2018-01-19T07:16:42.459Z,4.10
2018-01-19T07:19:10.737Z,4.00
2018-01-19T07:21:39.006Z,4.00
2018-01-19T07:24:07.302Z,4.00
2018-01-19T07:26:35.589Z,4.00
2018-01-19T07:29:03.877Z,4.00
2018-01-19T07:31:32.168Z,4.10
2018-01-19T07:34:00.441Z,4.20
2018-01-19T07:36:28.712Z,4.20
2018-01-19T07:38:57.000Z,4.20
2018-01-19T07:41:25.349Z,4.20
2018-01-19T07:43:53.635Z,4.30
2018-01-19T07:46:21.705Z,4.30
2018-01-19T07:48:49.791Z,4.30
2018-01-19T07:51:18.056Z,4.30
2018-01-19T07:53:46.323Z,4.30
2018-01-19T07:56:14.583Z,4.30
2018-01-19T07:58:42.852Z,4.30
2018-01-19T08:01:11.131Z,4.20
2018-01-19T08:03:39.384Z,4.30
2018-01-19T08:06:08.448Z,4.30
2018-01-19T08:08:36.704Z,4.30
2018-01-19T08:11:04.966Z,4.20
2018-01-19T08:13:33.435Z,4.30
2018-01-19T08:16:01.697Z,4.40
2018-01-19T08:18:29.986Z,4.30
2018-01-19T08:20:58.261Z,4.30
2018-01-19T08:23:26.528Z,4.30
2018-01-19T08:25:54.819Z,4.30
2018-01-19T08:28:23.077Z,4.20
2018-01-19T08:30:51.338Z,4.10
2018-01-19T08:33:19.594Z,4.20
2018-01-19T08:35:47.858Z,4.20
2018-01-19T08:38:16.119Z,4.30
2018-01-19T08:40:44.392Z,4.20
2018-01-19T08:43:12.667Z,4.20
2018-01-19T08:45:40.941Z,4.20
2018-01-19T08:48:09.198Z,4.20
2018-01-19T08:50:37.497Z,4.10
2018-01-19T08:53:05.752Z,4.20
2018-01-19T08:55:34.028Z,4.20
2018-01-19T08:58:02.323Z,4.20
2018-01-19T09:00:30.603Z,4.30
2018-01-19T09:02:58.867Z,4.30
2018-01-19T09:05:27.117Z,4.40
2018-01-19T09:07:55.392Z,4.50
2018-01-19T09:10:26.677Z,4.50
2018-01-19T09:12:55.856Z,4.60
2018-01-19T09:15:24.132Z,4.60
2018-01-19T09:17:52.409Z,4.60
2018-01-19T09:20:20.691Z,4.60
2018-01-19T09:22:48.993Z,4.60
2018-01-19T09:25:18.049Z,4.70
2018-01-19T09:27:46.315Z,4.70
2018-01-19T09:30:14.968Z,4.70
2018-01-19T09:32:43.224Z,4.80
2018-01-19T09:35:11.510Z,4.90
2018-01-19T09:37:39.779Z,5.10
2018-01-19T09:40:08.041Z,5.20
2018-01-19T09:42:36.321Z,5.20
2018-01-19T09:45:04.568Z,5.20
2018-01-19T09:47:32.852Z,5.30
2018-01-19T09:50:01.117Z,5.30
2018-01-19T09:52:29.392Z,5.30
2018-01-19T09:54:57.652Z,5.30
2018-01-19T09:57:25.925Z,5.40
2018-01-19T09:59:54.209Z,5.30
2018-01-19T10:02:22.495Z,5.40
2018-01-19T10:04:50.758Z,5.60
2018-01-19T10:07:19.223Z,5.60
2018-01-19T10:09:47.474Z,5.50
2018-01-19T10:12:15.722Z,5.20
2018-01-19T10:14:43.994Z,5.20
2018-01-19T10:17:12.264Z,5.40
2018-01-19T10:19:40.565Z,5.60
2018-01-19T10:22:08.820Z,5.90
2018-01-19T10:24:37.084Z,6.10
2018-01-19T10:27:05.362Z,6.30
2018-01-19T10:29:33.622Z,6.40
2018-01-19T10:32:01.897Z,6.30
2018-01-19T10:34:30.171Z,6.20
2018-01-19T10:36:58.476Z,6.00
2018-01-19T10:39:26.523Z,5.80
2018-01-19T10:41:54.792Z,5.70
2018-01-19T10:44:23.052Z,5.60
2018-01-19T10:46:51.349Z,5.60
2018-01-19T10:49:19.613Z,5.60
2018-01-19T10:51:47.884Z,5.50
2018-01-19T10:54:16.149Z,5.40
2018-01-19T10:56:44.401Z,5.30
2018-01-19T10:59:12.699Z,5.30
2018-01-19T11:01:40.951Z,5.30
2018-01-19T11:04:09.222Z,5.20
2018-01-19T11:06:38.281Z,5.50
2018-01-19T11:09:06.751Z,5.50
2018-01-19T11:11:35.053Z,5.50
2018-01-19T11:14:03.326Z,5.50
2018-01-19T11:16:31.576Z,5.40
2018-01-19T11:18:59.824Z,5.40
2018-01-19T11:21:28.864Z,5.60
2018-01-19T11:23:57.140Z,5.60
2018-01-19T11:26:25.411Z,5.80
2018-01-19T11:28:53.867Z,6.00
2018-01-19T11:31:22.155Z,6.00
2018-01-19T11:33:51.189Z,6.20
2018-01-19T11:36:19.456Z,6.20
2018-01-19T11:38:47.708Z,6.30
2018-01-19T11:41:15.988Z,6.20
2018-01-19T11:43:44.310Z,6.00
2018-01-19T11:46:12.635Z,5.90
2018-01-19T11:48:41.023Z,5.80
2018-01-19T11:51:09.307Z,5.90
2018-01-19T11:53:37.609Z,5.90
2018-01-19T11:56:05.887Z,6.10
2018-01-19T11:58:34.181Z,6.30
2018-01-19T12:01:02.553Z,6.30
2018-01-19T12:03:31.018Z,6.10
2018-01-19T12:12:43.543Z,5.70
2018-01-19T12:15:11.825Z,5.40
2018-01-19T12:17:40.325Z,5.40
2018-01-19T12:20:08.642Z,5.70
2018-01-19T12:22:37.051Z,6.00
2018-01-19T12:25:05.371Z,6.20
2018-01-19T12:27:33.655Z,6.30
2018-01-19T12:30:01.941Z,6.30
2018-01-19T12:32:33.567Z,6.20
2018-01-19T12:35:02.604Z,5.90
2018-01-19T12:37:30.884Z,5.90
2018-01-19T12:39:59.160Z,5.90
2018-01-19T12:42:27.554Z,5.80
2018-01-19T12:44:55.831Z,5.80
2018-01-19T12:47:24.102Z,5.90
2018-01-19T12:49:52.424Z,5.80
2018-01-19T12:52:20.722Z,5.70
2018-01-19T12:54:48.988Z,5.70
2018-01-19T12:57:17.280Z,5.70
2018-01-19T12:59:45.534Z,5.80
2018-01-19T13:02:13.813Z,6.00
2018-01-19T13:04:42.086Z,6.20
2018-01-19T13:07:10.340Z,6.40
2018-01-19T13:09:38.648Z,6.40
2018-01-19T13:12:06.924Z,6.50
2018-01-19T13:14:35.212Z,6.50
2018-01-19T13:17:03.467Z,6.40
2018-01-19T13:19:31.773Z,6.20
2018-01-19T13:22:00.107Z,6.10
2018-01-19T13:24:28.532Z,6.30
2018-01-19T13:26:56.795Z,6.20
2018-01-19T13:29:25.837Z,6.00
2018-01-19T13:31:54.294Z,6.00
2018-01-19T13:34:23.322Z,5.70
2018-01-19T13:36:51.399Z,5.70
2018-01-19T13:39:19.665Z,5.70
2018-01-19T13:41:47.943Z,5.60
2018-01-19T13:44:16.225Z,5.70
2018-01-19T13:46:44.531Z,5.80
2018-01-19T13:49:12.797Z,5.90
2018-01-19T13:51:41.114Z,5.90
2018-01-19T13:54:09.384Z,6.00
2018-01-19T13:56:37.669Z,6.20
2018-01-19T13:59:05.954Z,6.20
2018-01-19T14:01:34.224Z,6.10
2018-01-19T14:04:02.516Z,6.00
2018-01-19T14:06:30.828Z,6.00
2018-01-19T14:08:59.864Z,5.80
2018-01-19T14:11:28.124Z,5.80
2018-01-19T14:13:56.400Z,5.80
2018-01-19T14:16:24.662Z,5.90
2018-01-19T14:18:52.949Z,5.80
2018-01-19T14:21:21.237Z,5.90
2018-01-19T14:23:49.514Z,5.90
2018-01-19T14:26:18.550Z,6.00
2018-01-19T14:28:46.843Z,6.00
2018-01-19T14:31:15.138Z,6.10
2018-01-19T14:33:43.419Z,6.30
2018-01-19T14:36:11.689Z,6.30
2018-01-19T14:38:39.973Z,6.40
2018-01-19T14:41:08.256Z,6.30
2018-01-19T14:43:36.627Z,6.20
2018-01-19T14:46:04.926Z,5.90
2018-01-19T14:48:33.212Z,5.80
2018-01-19T14:51:01.488Z,5.60
2018-01-19T14:53:29.777Z,5.50
2018-01-19T14:55:58.091Z,5.40
2018-01-19T14:58:26.384Z,5.30
2018-01-19T15:00:54.661Z,5.30
2018-01-19T15:03:22.902Z,5.30
2018-01-19T15:05:51.200Z,5.30
2018-01-19T15:08:19.457Z,5.20
2018-01-19T15:10:47.727Z,5.20
2018-01-19T15:13:16.065Z,5.20
2018-01-19T15:15:44.485Z,5.10
2018-01-19T15:18:12.753Z,5.10
2018-01-19T15:20:41.020Z,5.00
2018-01-19T15:23:09.263Z,5.00
2018-01-19T15:25:37.703Z,5.00
2018-01-19T15:28:05.991Z,5.00
2018-01-19T15:30:34.318Z,5.10
2018-01-19T15:33:03.348Z,5.10
2018-01-19T15:35:31.616Z,5.00
2018-01-19T15:37:59.901Z,5.10
2018-01-19T15:40:28.162Z,5.10
2018-01-19T15:42:56.244Z,5.00
2018-01-19T15:45:24.526Z,4.90
2018-01-19T15:47:52.819Z,4.80
2018-01-19T15:50:21.108Z,4.70
2018-01-19T15:52:49.377Z,4.60
2018-01-19T15:55:17.640Z,4.50
2018-01-19T15:57:45.914Z,4.50
2018-01-19T16:00:14.201Z,4.50
2018-01-19T16:02:42.476Z,4.40
2018-01-19T16:05:10.763Z,4.40
2018-01-19T16:07:39.039Z,4.30
2018-01-19T16:10:07.303Z,4.20
2018-01-19T16:12:35.607Z,4.20
2018-01-19T16:15:04.058Z,4.30
2018-01-19T16:17:32.400Z,4.30
2018-01-19T16:20:00.665Z,4.20
2018-01-19T16:22:28.938Z,4.10
2018-01-19T16:24:58.104Z,4.10
2018-01-19T16:27:26.388Z,4.00
2018-01-19T16:29:55.242Z,4.10
2018-01-19T16:32:23.502Z,4.00
2018-01-19T16:34:52.754Z,4.00
2018-01-19T16:37:20.824Z,4.00
2018-01-19T16:39:49.110Z,4.00
2018-01-19T16:42:18.016Z,4.00
2018-01-19T16:44:46.303Z,4.00
2018-01-19T16:47:14.774Z,4.00
2018-01-19T16:49:43.039Z,4.00
2018-01-19T16:52:11.339Z,4.00
2018-01-19T16:54:41.411Z,4.10
2018-01-19T16:57:10.697Z,4.20
2018-01-19T16:59:39.109Z,4.20
2018-01-19T17:02:07.461Z,4.10
2018-01-19T17:04:35.750Z,4.10
2018-01-19T17:07:04.029Z,4.20
2018-01-19T17:09:32.297Z,4.30
2018-01-19T17:12:00.577Z,4.20
2018-01-19T17:14:28.828Z,4.10
2018-01-19T17:16:57.080Z,4.00
2018-01-19T17:19:25.168Z,4.00
2018-01-19T17:21:53.501Z,4.10
2018-01-19T17:24:21.769Z,4.00
2018-01-19T17:26:50.054Z,4.00
2018-01-19T17:29:18.351Z,3.90
2018-01-19T17:31:47.400Z,3.80
2018-01-19T17:34:15.686Z,3.70
2018-01-19T17:36:43.970Z,3.60
2018-01-19T17:39:11.912Z,3.60
2018-01-19T17:41:40.170Z,3.50
2018-01-19T17:44:08.444Z,3.40
2018-01-19T17:46:36.750Z,3.30
2018-01-19T17:49:05.373Z,3.30
2018-01-19T17:51:33.623Z,3.30
2018-01-19T17:54:01.887Z,3.30
2018-01-19T17:56:30.268Z,3.30
2018-01-19T17:58:58.599Z,3.30
2018-01-19T18:01:27.060Z,3.30
2018-01-19T18:03:55.475Z,3.30
2018-01-19T18:06:23.737Z,3.30
2018-01-19T18:08:52.039Z,3.30
2018-01-19T18:11:20.291Z,3.40
2018-01-19T18:13:48.577Z,3.30
2018-01-19T18:16:16.960Z,3.40
2018-01-19T18:18:45.300Z,3.40
2018-01-19T18:21:15.109Z,3.50
2018-01-19T18:23:43.526Z,3.50
2018-01-19T18:26:12.559Z,3.70
2018-01-19T18:28:40.823Z,3.70
2018-01-19T18:31:09.113Z,3.70
2018-01-19T18:33:37.376Z,3.80
2018-01-19T18:36:05.682Z,3.80
2018-01-19T18:38:33.963Z,3.90
2018-01-19T18:41:02.273Z,3.90
2018-01-19T18:43:30.541Z,3.90
2018-01-19T18:45:58.797Z,3.90
2018-01-19T18:48:27.064Z,4.00
2018-01-19T18:50:55.154Z,4.10
2018-01-19T18:53:26.459Z,3.20
2018-01-19T18:55:55.006Z,3.10
2018-01-19T18:58:23.365Z,3.10
2018-01-19T19:00:51.629Z,3.10
2018-01-19T19:03:19.926Z,3.10
2018-01-19T19:05:48.218Z,3.10
2018-01-19T19:08:16.489Z,3.10
2018-01-19T19:10:44.759Z,3.20
2018-01-19T19:13:13.064Z,3.10
2018-01-19T19:15:41.335Z,3.20
2018-01-19T19:18:09.622Z,3.30
2018-01-19T19:20:38.291Z,3.30
2018-01-19T19:23:07.323Z,3.40
2018-01-19T19:25:35.575Z,3.40
2018-01-19T19:28:03.840Z,3.40
2018-01-19T19:30:32.097Z,3.40
2018-01-19T19:33:00.183Z,3.40
2018-01-19T19:35:28.277Z,3.40
2018-01-19T19:37:56.545Z,3.30
2018-01-19T19:40:24.814Z,3.20
2018-01-19T19:42:53.196Z,3.20
2018-01-19T19:45:21.462Z,3.20
2018-01-19T19:47:49.735Z,3.10
2018-01-19T19:50:21.338Z,3.20
2018-01-19T19:52:49.606Z,3.40
2018-01-19T19:55:17.886Z,3.40
2018-01-19T19:57:46.157Z,3.50
2018-01-19T20:00:14.440Z,3.60
2018-01-19T20:02:42.724Z,3.70
2018-01-19T20:05:11.000Z,3.80
2018-01-19T20:07:39.270Z,4.00
2018-01-19T20:44:43.442Z,2.90
2018-01-19T20:47:12.520Z,2.70
2018-01-19T20:49:40.837Z,2.70
2018-01-19T20:52:09.117Z,2.70
2018-01-19T20:54:37.398Z,2.50
2018-01-19T20:57:05.679Z,2.50
2018-01-19T20:59:33.946Z,2.50
2018-01-19T21:02:02.467Z,2.50
2018-01-19T21:04:31.714Z,2.60
2018-01-19T21:24:17.673Z,3.80
2018-01-19T21:26:45.946Z,3.80
2018-01-19T21:29:14.200Z,3.60
2018-01-19T21:31:43.987Z,3.30
2018-01-19T21:34:12.244Z,3.30
2018-01-19T21:36:40.516Z,3.20
2018-01-19T21:39:08.803Z,3.10
2018-01-19T21:41:37.288Z,3.00
2018-01-19T21:44:05.579Z,2.90
2018-01-19T22:06:46.871Z,2.60
2018-01-19T22:09:15.175Z,2.60
2018-01-19T22:11:43.456Z,2.70
2018-01-19T22:14:11.726Z,2.70
2018-01-19T22:16:39.676Z,2.80
2018-01-19T22:19:07.939Z,2.80
2018-01-19T22:21:36.214Z,2.70
2018-01-19T22:24:04.505Z,2.70
2018-01-19T22:26:32.769Z,2.70
2018-01-19T22:46:19.645Z,2.50
2018-01-19T22:48:47.933Z,2.70
2018-01-19T22:51:16.236Z,2.80
2018-01-19T22:53:44.506Z,2.80
2018-01-19T22:56:13.284Z,2.90
2018-01-19T22:58:41.538Z,2.90
2018-01-19T23:01:09.816Z,2.90
2018-01-19T23:03:38.077Z,2.90
2018-01-19T23:06:06.353Z,2.80
2018-01-19T23:25:52.574Z,2.40
2018-01-19T23:28:20.848Z,2.30
2018-01-19T23:30:49.122Z,2.30
2018-01-19T23:33:17.417Z,2.30
2018-01-19T23:35:45.513Z,2.40
2018-01-19T23:38:13.787Z,2.40
2018-01-19T23:40:42.051Z,2.30
2018-01-19T23:43:10.360Z,2.20
2018-01-19T23:45:39.412Z,2.00
